createdAt,value
2023-05-19T00:11:50.743Z,9.01
2023-05-19T00:31:50.743Z,8.73
2023-05-19T00:51:50.742Z,8.58
2023-05-19T01:11:50.730Z,8.18
2023-05-19T01:31:50.728Z,8.10
2023-05-19T01:51:50.721Z,8.11
2023-05-19T02:11:50.722Z,8.39
2023-05-19T02:31:50.702Z,8.72
2023-05-19T02:51:50.704Z,8.87
2023-05-19T03:11:50.697Z,8.74
2023-05-19T03:31:50.706Z,8.85
2023-05-19T03:51:50.696Z,8.90
2023-05-19T04:11:50.694Z,9.18
2023-05-19T04:31:50.611Z,9.53
2023-05-19T04:51:50.582Z,9.84
2023-05-19T05:11:50.565Z,10.11
2023-05-19T05:31:50.577Z,10.43
2023-05-19T05:51:50.576Z,11.04
2023-05-19T06:11:50.566Z,11.52
2023-05-19T06:31:50.562Z,11.71
2023-05-19T06:51:50.477Z,11.74
2023-05-19T07:11:50.473Z,12.35
2023-05-19T07:31:50.568Z,12.93
2023-05-19T07:51:50.599Z,12.71
2023-05-19T08:11:50.505Z,12.83
2023-05-19T08:31:50.478Z,12.71
2023-05-19T08:51:50.382Z,12.62
2023-05-19T09:11:50.508Z,12.42
2023-05-19T09:31:50.663Z,12.37
2023-05-19T09:51:50.526Z,12.62
2023-05-19T10:11:50.513Z,12.81
2023-05-19T10:31:50.452Z,12.68
2023-05-19T10:51:50.394Z,12.70
2023-05-19T11:11:50.458Z,13.22
2023-05-19T11:31:50.351Z,13.45
2023-05-19T11:51:50.345Z,13.76
2023-05-19T12:11:50.255Z,14.50
2023-05-19T12:31:50.300Z,14.50
2023-05-19T12:51:50.253Z,14.84
2023-05-19T13:11:50.196Z,15.01
2023-05-19T13:31:50.283Z,15.73
2023-05-19T13:51:50.087Z,16.38
2023-05-19T14:11:50.208Z,16.81
2023-05-19T14:31:50.109Z,16.76
2023-05-19T14:51:50.139Z,16.40
2023-05-19T15:11:50.168Z,16.12
2023-05-19T15:31:50.145Z,16.11
2023-05-19T15:51:50.000Z,16.39
2023-05-19T16:11:50.016Z,16.21
2023-05-19T16:31:50.062Z,16.50
2023-05-19T16:51:49.886Z,16.50
2023-05-19T17:11:49.891Z,16.31
2023-05-19T17:31:49.902Z,16.14
2023-05-19T17:51:49.948Z,15.88
2023-05-19T18:11:49.945Z,15.49
2023-05-19T18:31:49.903Z,15.20
2023-05-19T18:51:49.817Z,14.93
2023-05-19T19:11:49.865Z,14.70
2023-05-19T19:31:49.978Z,14.60
2023-05-19T19:51:49.786Z,14.58
2023-05-19T20:11:49.737Z,14.54
2023-05-19T20:31:49.765Z,14.47
2023-05-19T20:51:49.613Z,14.41
2023-05-19T21:11:49.671Z,14.39
2023-05-19T21:31:49.790Z,14.27
2023-05-19T21:51:49.787Z,14.12
2023-05-19T22:11:49.605Z,13.97
2023-05-19T22:31:49.496Z,13.77
2023-05-19T22:51:49.738Z,13.37
2023-05-19T23:11:49.627Z,12.95
2023-05-19T23:31:49.561Z,12.66
2023-05-19T23:51:49.582Z,12.42
